sensor_id;sensor_type;location;lat;lon;timestamp;P1;durP1;ratioP1;P2;durP2;ratioP2
38427;SDS011;24211;49.980;19.776;2023-07-16T00:02:19;7.35;;;4.20;;
38427;SDS011;24211;49.980;19.776;2023-07-16T00:04:46;7.75;;;4.03;;
38427;SDS011;24211;49.980;19.776;2023-07-16T00:07:13;8.05;;;4.40;;
38427;SDS011;24211;49.980;19.776;2023-07-16T00:09:40;7.88;;;4.05;;
38427;SDS011;24211;49.980;19.776;2023-07-16T00:12:08;6.88;;;4.40;;
38427;SDS011;24211;49.980;19.776;2023-07-16T00:14:35;7.47;;;4.25;;
38427;SDS011;24211;49.980;19.776;2023-07-16T00:17:03;7.03;;;4.18;;
38427;SDS011;24211;49.980;19.776;2023-07-16T00:19:30;6.55;;;3.83;;
38427;SDS011;24211;49.980;19.776;2023-07-16T00:21:57;9.15;;;4.55;;
38427;SDS011;24211;49.980;19.776;2023-07-16T00:24:24;7.50;;;4.15;;
38427;SDS011;24211;49.980;19.776;2023-07-16T00:26:52;7.00;;;4.22;;
38427;SDS011;24211;49.980;19.776;2023-07-16T00:29:19;7.53;;;4.40;;
38427;SDS011;24211;49.980;19.776;2023-07-16T00:31:47;7.15;;;4.30;;
38427;SDS011;24211;49.980;19.776;2023-07-16T00:34:14;7.22;;;4.28;;
38427;SDS011;24211;49.980;19.776;2023-07-16T00:36:41;7.05;;;4.35;;
38427;SDS011;24211;49.980;19.776;2023-07-16T00:39:08;7.30;;;4.32;;
38427;SDS011;24211;49.980;19.776;2023-07-16T00:41:36;6.18;;;4.20;;
38427;SDS011;24211;49.980;19.776;2023-07-16T00:44:04;6.40;;;4.10;;
38427;SDS011;24211;49.980;19.776;2023-07-16T00:46:31;6.85;;;4.50;;
38427;SDS011;24211;49.980;19.776;2023-07-16T00:48:58;7.80;;;4.40;;
38427;SDS011;24211;49.980;19.776;2023-07-16T00:51:26;7.57;;;4.40;;
38427;SDS011;24211;49.980;19.776;2023-07-16T00:53:54;7.35;;;4.60;;
38427;SDS011;24211;49.980;19.776;2023-07-16T00:56:22;7.43;;;4.55;;
38427;SDS011;24211;49.980;19.776;2023-07-16T00:58:49;7.53;;;4.05;;
38427;SDS011;24211;49.980;19.776;2023-07-16T01:01:16;7.85;;;4.72;;
38427;SDS011;24211;49.980;19.776;2023-07-16T01:03:44;8.48;;;4.30;;
38427;SDS011;24211;49.980;19.776;2023-07-16T01:06:16;6.80;;;4.32;;
38427;SDS011;24211;49.980;19.776;2023-07-16T01:08:58;6.18;;;3.90;;
38427;SDS011;24211;49.980;19.776;2023-07-16T01:11:34;7.03;;;4.20;;
38427;SDS011;24211;49.980;19.776;2023-07-16T01:14:03;5.88;;;3.92;;
38427;SDS011;24211;49.980;19.776;2023-07-16T01:16:34;6.43;;;4.00;;
38427;SDS011;24211;49.980;19.776;2023-07-16T01:19:02;6.30;;;3.90;;
38427;SDS011;24211;49.980;19.776;2023-07-16T01:21:54;7.57;;;4.10;;
38427;SDS011;24211;49.980;19.776;2023-07-16T01:28:08;6.68;;;3.90;;
38427;SDS011;24211;49.980;19.776;2023-07-16T01:30:52;6.80;;;4.40;;
38427;SDS011;24211;49.980;19.776;2023-07-16T01:33:22;7.45;;;4.15;;
38427;SDS011;24211;49.980;19.776;2023-07-16T01:35:50;7.20;;;3.90;;
38427;SDS011;24211;49.980;19.776;2023-07-16T01:38:18;7.18;;;4.10;;
38427;SDS011;24211;49.980;19.776;2023-07-16T01:40:47;6.43;;;3.70;;
38427;SDS011;24211;49.980;19.776;2023-07-16T01:43:14;5.88;;;3.60;;
38427;SDS011;24211;49.980;19.776;2023-07-16T01:45:41;7.13;;;4.32;;
38427;SDS011;24211;49.980;19.776;2023-07-16T01:50:58;7.45;;;3.97;;
38427;SDS011;24211;49.980;19.776;2023-07-16T01:53:28;7.75;;;4.15;;
38427;SDS011;24211;49.980;19.776;2023-07-16T01:55:55;6.88;;;3.90;;
38427;SDS011;24211;49.980;19.776;2023-07-16T01:58:22;7.32;;;4.20;;
38427;SDS011;24211;49.980;19.776;2023-07-16T02:00:50;6.75;;;3.95;;
38427;SDS011;24211;49.980;19.776;2023-07-16T02:03:18;5.93;;;3.92;;
38427;SDS011;24211;49.980;19.776;2023-07-16T02:05:45;5.72;;;3.88;;
38427;SDS011;24211;49.980;19.776;2023-07-16T02:08:12;6.57;;;3.80;;
38427;SDS011;24211;49.980;19.776;2023-07-16T02:10:39;5.88;;;3.50;;
38427;SDS011;24211;49.980;19.776;2023-07-16T02:13:06;5.65;;;3.58;;
38427;SDS011;24211;49.980;19.776;2023-07-16T02:15:34;6.47;;;3.65;;
38427;SDS011;24211;49.980;19.776;2023-07-16T02:18:03;5.75;;;3.53;;
38427;SDS011;24211;49.980;19.776;2023-07-16T02:20:34;6.82;;;3.80;;
38427;SDS011;24211;49.980;19.776;2023-07-16T02:23:01;5.82;;;3.40;;
38427;SDS011;24211;49.980;19.776;2023-07-16T02:25:28;5.32;;;3.22;;
38427;SDS011;24211;49.980;19.776;2023-07-16T02:27:56;6.72;;;3.42;;
38427;SDS011;24211;49.980;19.776;2023-07-16T02:30:23;5.80;;;3.38;;
38427;SDS011;24211;49.980;19.776;2023-07-16T02:32:50;4.72;;;3.20;;
38427;SDS011;24211;49.980;19.776;2023-07-16T02:35:17;5.63;;;3.10;;
38427;SDS011;24211;49.980;19.776;2023-07-16T02:37:45;5.18;;;3.20;;
38427;SDS011;24211;49.980;19.776;2023-07-16T02:40:12;5.88;;;2.90;;
38427;SDS011;24211;49.980;19.776;2023-07-16T02:42:41;5.53;;;3.28;;
38427;SDS011;24211;49.980;19.776;2023-07-16T02:45:08;5.35;;;3.10;;
38427;SDS011;24211;49.980;19.776;2023-07-16T02:47:36;6.68;;;3.05;;
38427;SDS011;24211;49.980;19.776;2023-07-16T02:50:03;5.45;;;3.20;;
38427;SDS011;24211;49.980;19.776;2023-07-16T02:52:31;4.53;;;2.70;;
38427;SDS011;24211;49.980;19.776;2023-07-16T02:54:58;5.40;;;3.00;;
38427;SDS011;24211;49.980;19.776;2023-07-16T02:57:26;6.47;;;3.38;;
38427;SDS011;24211;49.980;19.776;2023-07-16T02:59:54;4.53;;;2.85;;
38427;SDS011;24211;49.980;19.776;2023-07-16T03:02:21;5.30;;;3.00;;
38427;SDS011;24211;49.980;19.776;2023-07-16T03:04:49;4.68;;;3.05;;
38427;SDS011;24211;49.980;19.776;2023-07-16T03:07:16;6.13;;;3.05;;
38427;SDS011;24211;49.980;19.776;2023-07-16T03:09:43;4.97;;;3.17;;
38427;SDS011;24211;49.980;19.776;2023-07-16T03:12:10;5.65;;;3.30;;
38427;SDS011;24211;49.980;19.776;2023-07-16T03:14:38;5.60;;;3.42;;
38427;SDS011;24211;49.980;19.776;2023-07-16T03:17:06;5.95;;;3.30;;
38427;SDS011;24211;49.980;19.776;2023-07-16T03:19:33;6.32;;;3.42;;
38427;SDS011;24211;49.980;19.776;2023-07-16T03:22:02;4.55;;;3.03;;
38427;SDS011;24211;49.980;19.776;2023-07-16T03:24:30;5.38;;;3.13;;
38427;SDS011;24211;49.980;19.776;2023-07-16T03:26:57;6.00;;;3.33;;
38427;SDS011;24211;49.980;19.776;2023-07-16T03:29:43;5.32;;;3.20;;
38427;SDS011;24211;49.980;19.776;2023-07-16T03:32:13;6.05;;;3.85;;
38427;SDS011;24211;49.980;19.776;2023-07-16T03:34:40;5.60;;;3.30;;
38427;SDS011;24211;49.980;19.776;2023-07-16T03:37:08;5.18;;;3.13;;
38427;SDS011;24211;49.980;19.776;2023-07-16T03:39:35;4.93;;;2.92;;
38427;SDS011;24211;49.980;19.776;2023-07-16T03:42:03;5.32;;;3.10;;
38427;SDS011;24211;49.980;19.776;2023-07-16T03:44:31;4.70;;;3.03;;
38427;SDS011;24211;49.980;19.776;2023-07-16T03:47:00;5.45;;;3.00;;
38427;SDS011;24211;49.980;19.776;2023-07-16T03:49:39;5.10;;;2.88;;
38427;SDS011;24211;49.980;19.776;2023-07-16T03:52:07;7.03;;;3.22;;
38427;SDS011;24211;49.980;19.776;2023-07-16T03:54:35;4.55;;;2.80;;
38427;SDS011;24211;49.980;19.776;2023-07-16T03:57:05;6.00;;;2.78;;
38427;SDS011;24211;49.980;19.776;2023-07-16T03:59:32;4.68;;;2.90;;
38427;SDS011;24211;49.980;19.776;2023-07-16T04:01:59;4.78;;;2.90;;
38427;SDS011;24211;49.980;19.776;2023-07-16T04:04:27;4.68;;;2.90;;
38427;SDS011;24211;49.980;19.776;2023-07-16T04:06:54;4.72;;;3.03;;
38427;SDS011;24211;49.980;19.776;2023-07-16T04:09:22;5.25;;;2.90;;
38427;SDS011;24211;49.980;19.776;2023-07-16T04:11:50;5.20;;;2.97;;
38427;SDS011;24211;49.980;19.776;2023-07-16T04:14:19;4.70;;;2.75;;
38427;SDS011;24211;49.980;19.776;2023-07-16T04:16:46;4.60;;;3.00;;
38427;SDS011;24211;49.980;19.776;2023-07-16T04:19:14;4.97;;;2.85;;
38427;SDS011;24211;49.980;19.776;2023-07-16T04:21:41;6.00;;;3.08;;
38427;SDS011;24211;49.980;19.776;2023-07-16T04:24:08;6.70;;;3.10;;
38427;SDS011;24211;49.980;19.776;2023-07-16T04:26:35;5.43;;;3.17;;
38427;SDS011;24211;49.980;19.776;2023-07-16T04:29:03;5.00;;;3.03;;
38427;SDS011;24211;49.980;19.776;2023-07-16T04:31:30;5.72;;;3.13;;
38427;SDS011;24211;49.980;19.776;2023-07-16T04:33:58;5.07;;;3.15;;
38427;SDS011;24211;49.980;19.776;2023-07-16T04:36:25;4.53;;;2.88;;
38427;SDS011;24211;49.980;19.776;2023-07-16T04:38:52;5.82;;;2.92;;
38427;SDS011;24211;49.980;19.776;2023-07-16T04:41:20;5.43;;;2.78;;
38427;SDS011;24211;49.980;19.776;2023-07-16T04:43:47;5.28;;;3.38;;
38427;SDS011;24211;49.980;19.776;2023-07-16T04:46:14;4.72;;;2.83;;
38427;SDS011;24211;49.980;19.776;2023-07-16T04:48:43;6.78;;;3.38;;
38427;SDS011;24211;49.980;19.776;2023-07-16T04:51:10;5.78;;;3.28;;
38427;SDS011;24211;49.980;19.776;2023-07-16T04:53:37;6.03;;;3.40;;
38427;SDS011;24211;49.980;19.776;2023-07-16T04:56:10;5.50;;;3.17;;
38427;SDS011;24211;49.980;19.776;2023-07-16T04:58:42;6.90;;;3.10;;
38427;SDS011;24211;49.980;19.776;2023-07-16T05:01:10;6.20;;;3.20;;
38427;SDS011;24211;49.980;19.776;2023-07-16T05:03:37;5.97;;;3.40;;
38427;SDS011;24211;49.980;19.776;2023-07-16T05:06:05;5.53;;;3.60;;
38427;SDS011;24211;49.980;19.776;2023-07-16T05:08:32;6.28;;;3.65;;
38427;SDS011;24211;49.980;19.776;2023-07-16T05:11:00;5.55;;;3.67;;
38427;SDS011;24211;49.980;19.776;2023-07-16T05:13:28;6.22;;;3.75;;
38427;SDS011;24211;49.980;19.776;2023-07-16T05:15:55;5.93;;;3.17;;
38427;SDS011;24211;49.980;19.776;2023-07-16T05:18:23;6.72;;;3.60;;
38427;SDS011;24211;49.980;19.776;2023-07-16T05:20:50;8.07;;;3.78;;
38427;SDS011;24211;49.980;19.776;2023-07-16T05:23:17;5.95;;;3.55;;
38427;SDS011;24211;49.980;19.776;2023-07-16T05:25:45;5.32;;;3.45;;
38427;SDS011;24211;49.980;19.776;2023-07-16T05:28:17;6.15;;;3.53;;
38427;SDS011;24211;49.980;19.776;2023-07-16T05:30:45;5.50;;;3.03;;
38427;SDS011;24211;49.980;19.776;2023-07-16T05:33:12;6.57;;;3.55;;
38427;SDS011;24211;49.980;19.776;2023-07-16T05:35:40;5.57;;;3.22;;
38427;SDS011;24211;49.980;19.776;2023-07-16T05:38:08;5.50;;;3.70;;
38427;SDS011;24211;49.980;19.776;2023-07-16T05:40:35;7.05;;;3.58;;
38427;SDS011;24211;49.980;19.776;2023-07-16T05:43:02;6.13;;;3.25;;
38427;SDS011;24211;49.980;19.776;2023-07-16T05:45:29;5.68;;;3.33;;
38427;SDS011;24211;49.980;19.776;2023-07-16T05:47:56;6.85;;;3.80;;
38427;SDS011;24211;49.980;19.776;2023-07-16T05:50:24;5.93;;;3.72;;
38427;SDS011;24211;49.980;19.776;2023-07-16T05:52:51;5.80;;;3.78;;
38427;SDS011;24211;49.980;19.776;2023-07-16T05:55:18;7.57;;;4.05;;
38427;SDS011;24211;49.980;19.776;2023-07-16T05:57:45;5.60;;;3.85;;
38427;SDS011;24211;49.980;19.776;2023-07-16T06:00:13;6.43;;;4.05;;
38427;SDS011;24211;49.980;19.776;2023-07-16T06:02:42;6.55;;;3.80;;
38427;SDS011;24211;49.980;19.776;2023-07-16T06:05:10;6.15;;;3.72;;
38427;SDS011;24211;49.980;19.776;2023-07-16T06:07:37;6.47;;;4.03;;
38427;SDS011;24211;49.980;19.776;2023-07-16T06:10:04;6.78;;;3.85;;
38427;SDS011;24211;49.980;19.776;2023-07-16T06:12:32;6.97;;;3.97;;
38427;SDS011;24211;49.980;19.776;2023-07-16T06:15:00;7.85;;;3.75;;
38427;SDS011;24211;49.980;19.776;2023-07-16T06:17:27;6.43;;;4.00;;
38427;SDS011;24211;49.980;19.776;2023-07-16T06:19:55;8.05;;;4.30;;
38427;SDS011;24211;49.980;19.776;2023-07-16T06:22:24;6.90;;;4.30;;
38427;SDS011;24211;49.980;19.776;2023-07-16T06:24:51;6.82;;;3.85;;
38427;SDS011;24211;49.980;19.776;2023-07-16T06:27:18;6.18;;;4.07;;
38427;SDS011;24211;49.980;19.776;2023-07-16T06:29:46;5.75;;;3.92;;
38427;SDS011;24211;49.980;19.776;2023-07-16T06:32:13;11.02;;;4.30;;
38427;SDS011;24211;49.980;19.776;2023-07-16T06:34:40;8.82;;;4.05;;
38427;SDS011;24211;49.980;19.776;2023-07-16T06:37:07;6.25;;;3.92;;
38427;SDS011;24211;49.980;19.776;2023-07-16T06:39:35;5.57;;;3.65;;
38427;SDS011;24211;49.980;19.776;2023-07-16T06:42:02;6.30;;;4.00;;
38427;SDS011;24211;49.980;19.776;2023-07-16T06:44:32;6.88;;;3.75;;
38427;SDS011;24211;49.980;19.776;2023-07-16T06:46:59;6.53;;;3.83;;
38427;SDS011;24211;49.980;19.776;2023-07-16T06:49:27;5.75;;;3.70;;
38427;SDS011;24211;49.980;19.776;2023-07-16T06:51:54;5.72;;;3.60;;
38427;SDS011;24211;49.980;19.776;2023-07-16T06:54:21;5.43;;;3.50;;
38427;SDS011;24211;49.980;19.776;2023-07-16T06:56:48;6.53;;;3.47;;
38427;SDS011;24211;49.980;19.776;2023-07-16T06:59:16;5.35;;;3.53;;
38427;SDS011;24211;49.980;19.776;2023-07-16T07:01:43;5.82;;;3.40;;
38427;SDS011;24211;49.980;19.776;2023-07-16T07:04:10;5.10;;;3.17;;
38427;SDS011;24211;49.980;19.776;2023-07-16T07:06:37;6.05;;;3.13;;
38427;SDS011;24211;49.980;19.776;2023-07-16T07:09:05;4.82;;;2.90;;
38427;SDS011;24211;49.980;19.776;2023-07-16T07:11:32;4.65;;;2.80;;
38427;SDS011;24211;49.980;19.776;2023-07-16T07:13:59;5.38;;;2.72;;
38427;SDS011;24211;49.980;19.776;2023-07-16T07:16:26;5.00;;;3.03;;
38427;SDS011;24211;49.980;19.776;2023-07-16T07:18:53;7.43;;;2.90;;
38427;SDS011;24211;49.980;19.776;2023-07-16T07:21:21;4.72;;;2.70;;
38427;SDS011;24211;49.980;19.776;2023-07-16T07:23:48;4.68;;;2.80;;
38427;SDS011;24211;49.980;19.776;2023-07-16T07:26:15;4.32;;;2.67;;
38427;SDS011;24211;49.980;19.776;2023-07-16T07:28:43;4.78;;;3.15;;
38427;SDS011;24211;49.980;19.776;2023-07-16T07:31:10;4.13;;;2.90;;
38427;SDS011;24211;49.980;19.776;2023-07-16T07:33:37;4.45;;;2.92;;
38427;SDS011;24211;49.980;19.776;2023-07-16T07:36:04;3.47;;;2.38;;
38427;SDS011;24211;49.980;19.776;2023-07-16T07:38:32;6.15;;;3.00;;
38427;SDS011;24211;49.980;19.776;2023-07-16T07:40:59;6.38;;;2.80;;
38427;SDS011;24211;49.980;19.776;2023-07-16T07:43:27;3.88;;;2.60;;
38427;SDS011;24211;49.980;19.776;2023-07-16T07:45:54;3.75;;;2.65;;
38427;SDS011;24211;49.980;19.776;2023-07-16T07:48:21;4.40;;;2.85;;
38427;SDS011;24211;49.980;19.776;2023-07-16T07:50:48;4.63;;;2.95;;
38427;SDS011;24211;49.980;19.776;2023-07-16T07:53:19;3.75;;;2.72;;
38427;SDS011;24211;49.980;19.776;2023-07-16T07:55:46;4.78;;;2.45;;
38427;SDS011;24211;49.980;19.776;2023-07-16T07:58:13;4.25;;;2.90;;
38427;SDS011;24211;49.980;19.776;2023-07-16T08:00:40;5.57;;;2.50;;
38427;SDS011;24211;49.980;19.776;2023-07-16T08:03:08;4.53;;;2.70;;
38427;SDS011;24211;49.980;19.776;2023-07-16T08:05:35;6.40;;;3.00;;
38427;SDS011;24211;49.980;19.776;2023-07-16T08:08:02;4.15;;;3.00;;
38427;SDS011;24211;49.980;19.776;2023-07-16T08:10:30;5.00;;;2.53;;
38427;SDS011;24211;49.980;19.776;2023-07-16T08:12:57;4.28;;;2.80;;
38427;SDS011;24211;49.980;19.776;2023-07-16T08:15:24;5.00;;;2.80;;
38427;SDS011;24211;49.980;19.776;2023-07-16T08:17:52;7.38;;;3.03;;
38427;SDS011;24211;49.980;19.776;2023-07-16T08:20:20;4.85;;;3.20;;
38427;SDS011;24211;49.980;19.776;2023-07-16T08:22:48;5.07;;;2.97;;
38427;SDS011;24211;49.980;19.776;2023-07-16T08:25:15;6.10;;;3.38;;
38427;SDS011;24211;49.980;19.776;2023-07-16T08:27:42;4.07;;;2.90;;
38427;SDS011;24211;49.980;19.776;2023-07-16T08:30:10;4.88;;;3.20;;
38427;SDS011;24211;49.980;19.776;2023-07-16T08:32:38;6.05;;;3.10;;
38427;SDS011;24211;49.980;19.776;2023-07-16T08:35:05;6.05;;;3.25;;
38427;SDS011;24211;49.980;19.776;2023-07-16T08:37:33;4.80;;;3.33;;
38427;SDS011;24211;49.980;19.776;2023-07-16T08:40:00;5.88;;;3.28;;
38427;SDS011;24211;49.980;19.776;2023-07-16T08:42:28;5.32;;;2.85;;
38427;SDS011;24211;49.980;19.776;2023-07-16T08:44:56;5.22;;;3.20;;
38427;SDS011;24211;49.980;19.776;2023-07-16T08:47:24;5.95;;;3.13;;
38427;SDS011;24211;49.980;19.776;2023-07-16T08:49:55;6.15;;;2.70;;
38427;SDS011;24211;49.980;19.776;2023-07-16T08:52:24;5.25;;;3.00;;
38427;SDS011;24211;49.980;19.776;2023-07-16T08:54:54;8.07;;;2.97;;
38427;SDS011;24211;49.980;19.776;2023-07-16T08:57:23;4.90;;;2.88;;
38427;SDS011;24211;49.980;19.776;2023-07-16T08:59:51;4.65;;;3.00;;
38427;SDS011;24211;49.980;19.776;2023-07-16T09:02:18;3.65;;;2.55;;
38427;SDS011;24211;49.980;19.776;2023-07-16T09:04:47;4.25;;;2.90;;
38427;SDS011;24211;49.980;19.776;2023-07-16T09:07:15;4.50;;;2.70;;
38427;SDS011;24211;49.980;19.776;2023-07-16T09:09:43;4.60;;;2.83;;
38427;SDS011;24211;49.980;19.776;2023-07-16T09:12:22;4.47;;;2.65;;
38427;SDS011;24211;49.980;19.776;2023-07-16T09:14:51;4.72;;;3.08;;
38427;SDS011;24211;49.980;19.776;2023-07-16T09:17:22;3.85;;;2.75;;
38427;SDS011;24211;49.980;19.776;2023-07-16T09:19:52;5.43;;;3.03;;
38427;SDS011;24211;49.980;19.776;2023-07-16T09:22:20;4.50;;;2.78;;
38427;SDS011;24211;49.980;19.776;2023-07-16T09:24:47;6.07;;;2.88;;
38427;SDS011;24211;49.980;19.776;2023-07-16T09:27:15;4.10;;;2.63;;
38427;SDS011;24211;49.980;19.776;2023-07-16T09:29:42;5.40;;;2.75;;
38427;SDS011;24211;49.980;19.776;2023-07-16T09:32:09;4.88;;;2.90;;
38427;SDS011;24211;49.980;19.776;2023-07-16T09:34:37;3.67;;;2.50;;
38427;SDS011;24211;49.980;19.776;2023-07-16T09:37:04;5.75;;;2.97;;
38427;SDS011;24211;49.980;19.776;2023-07-16T09:39:33;3.47;;;2.50;;
38427;SDS011;24211;49.980;19.776;2023-07-16T09:42:03;5.30;;;3.10;;
38427;SDS011;24211;49.980;19.776;2023-07-16T09:44:31;4.53;;;3.00;;
38427;SDS011;24211;49.980;19.776;2023-07-16T09:46:59;4.53;;;2.80;;
38427;SDS011;24211;49.980;19.776;2023-07-16T09:49:28;4.65;;;2.72;;
38427;SDS011;24211;49.980;19.776;2023-07-16T09:51:56;3.60;;;2.80;;
38427;SDS011;24211;49.980;19.776;2023-07-16T09:54:25;4.90;;;2.88;;
38427;SDS011;24211;49.980;19.776;2023-07-16T09:56:55;4.45;;;2.63;;
38427;SDS011;24211;49.980;19.776;2023-07-16T09:59:30;4.18;;;2.53;;
38427;SDS011;24211;49.980;19.776;2023-07-16T10:02:00;5.00;;;2.70;;
38427;SDS011;24211;49.980;19.776;2023-07-16T10:04:36;5.05;;;2.80;;
38427;SDS011;24211;49.980;19.776;2023-07-16T10:07:17;5.72;;;2.80;;
38427;SDS011;24211;49.980;19.776;2023-07-16T10:09:51;5.00;;;2.50;;
38427;SDS011;24211;49.980;19.776;2023-07-16T10:12:24;5.10;;;2.88;;
38427;SDS011;24211;49.980;19.776;2023-07-16T10:14:53;4.90;;;2.60;;
38427;SDS011;24211;49.980;19.776;2023-07-16T10:17:26;4.32;;;2.70;;
38427;SDS011;24211;49.980;19.776;2023-07-16T10:20:07;4.57;;;2.80;;
38427;SDS011;24211;49.980;19.776;2023-07-16T10:22:41;4.20;;;2.78;;
38427;SDS011;24211;49.980;19.776;2023-07-16T10:27:45;4.30;;;2.33;;
38427;SDS011;24211;49.980;19.776;2023-07-16T10:30:14;3.60;;;2.20;;
38427;SDS011;24211;49.980;19.776;2023-07-16T10:32:43;3.85;;;2.47;;
38427;SDS011;24211;49.980;19.776;2023-07-16T10:35:10;3.60;;;2.35;;
38427;SDS011;24211;49.980;19.776;2023-07-16T10:37:39;3.60;;;2.10;;
38427;SDS011;24211;49.980;19.776;2023-07-16T10:40:10;3.15;;;2.10;;
38427;SDS011;24211;49.980;19.776;2023-07-16T10:42:40;3.95;;;2.53;;
38427;SDS011;24211;49.980;19.776;2023-07-16T10:45:10;4.63;;;2.20;;
38427;SDS011;24211;49.980;19.776;2023-07-16T10:47:40;4.10;;;2.45;;
38427;SDS011;24211;49.980;19.776;2023-07-16T10:50:20;3.63;;;2.30;;
38427;SDS011;24211;49.980;19.776;2023-07-16T10:55:20;3.72;;;2.10;;
38427;SDS011;24211;49.980;19.776;2023-07-16T10:57:49;3.58;;;2.10;;
38427;SDS011;24211;49.980;19.776;2023-07-16T11:00:17;3.40;;;1.90;;
38427;SDS011;24211;49.980;19.776;2023-07-16T11:02:45;3.08;;;2.00;;
38427;SDS011;24211;49.980;19.776;2023-07-16T11:05:14;3.58;;;2.05;;
38427;SDS011;24211;49.980;19.776;2023-07-16T11:07:47;3.10;;;2.00;;
38427;SDS011;24211;49.980;19.776;2023-07-16T11:10:21;3.72;;;2.20;;
38427;SDS011;24211;49.980;19.776;2023-07-16T11:12:51;5.22;;;2.15;;
38427;SDS011;24211;49.980;19.776;2023-07-16T11:15:35;3.90;;;2.25;;
38427;SDS011;24211;49.980;19.776;2023-07-16T11:18:03;2.92;;;2.17;;
38427;SDS011;24211;49.980;19.776;2023-07-16T11:20:30;3.58;;;1.90;;
38427;SDS011;24211;49.980;19.776;2023-07-16T11:22:58;2.83;;;1.90;;
38427;SDS011;24211;49.980;19.776;2023-07-16T11:25:27;3.20;;;2.10;;
38427;SDS011;24211;49.980;19.776;2023-07-16T11:27:55;3.28;;;2.13;;
38427;SDS011;24211;49.980;19.776;2023-07-16T11:30:23;5.43;;;2.42;;
38427;SDS011;24211;49.980;19.776;2023-07-16T11:32:52;4.65;;;2.20;;
38427;SDS011;24211;49.980;19.776;2023-07-16T11:35:20;3.95;;;2.40;;
38427;SDS011;24211;49.980;19.776;2023-07-16T11:37:48;3.80;;;2.50;;
38427;SDS011;24211;49.980;19.776;2023-07-16T11:40:16;4.22;;;2.50;;
38427;SDS011;24211;49.980;19.776;2023-07-16T11:42:46;3.47;;;2.50;;
38427;SDS011;24211;49.980;19.776;2023-07-16T11:45:18;4.57;;;2.63;;
38427;SDS011;24211;49.980;19.776;2023-07-16T11:47:54;3.87;;;2.33;;
38427;SDS011;24211;49.980;19.776;2023-07-16T11:50:21;3.53;;;2.53;;
38427;SDS011;24211;49.980;19.776;2023-07-16T11:52:53;3.50;;;2.45;;
38427;SDS011;24211;49.980;19.776;2023-07-16T11:55:22;3.05;;;2.08;;
38427;SDS011;24211;49.980;19.776;2023-07-16T11:57:51;3.70;;;2.30;;
38427;SDS011;24211;49.980;19.776;2023-07-16T12:00:18;4.50;;;2.80;;
38427;SDS011;24211;49.980;19.776;2023-07-16T12:02:46;6.70;;;3.10;;
38427;SDS011;24211;49.980;19.776;2023-07-16T12:05:18;4.85;;;2.90;;
38427;SDS011;24211;49.980;19.776;2023-07-16T12:08:11;3.40;;;2.60;;
38427;SDS011;24211;49.980;19.776;2023-07-16T12:10:41;4.25;;;2.65;;
38427;SDS011;24211;49.980;19.776;2023-07-16T12:13:09;3.80;;;2.72;;
38427;SDS011;24211;49.980;19.776;2023-07-16T12:15:36;3.42;;;2.60;;
38427;SDS011;24211;49.980;19.776;2023-07-16T12:18:06;4.75;;;2.72;;
38427;SDS011;24211;49.980;19.776;2023-07-16T12:20:34;4.38;;;3.10;;
38427;SDS011;24211;49.980;19.776;2023-07-16T12:23:03;6.30;;;3.30;;
38427;SDS011;24211;49.980;19.776;2023-07-16T12:25:30;6.93;;;3.40;;
38427;SDS011;24211;49.980;19.776;2023-07-16T12:27:57;4.65;;;3.70;;
38427;SDS011;24211;49.980;19.776;2023-07-16T12:30:26;5.53;;;3.08;;
38427;SDS011;24211;49.980;19.776;2023-07-16T12:32:53;4.80;;;3.30;;
38427;SDS011;24211;49.980;19.776;2023-07-16T12:35:20;5.70;;;3.75;;
38427;SDS011;24211;49.980;19.776;2023-07-16T12:37:47;5.05;;;3.60;;
38427;SDS011;24211;49.980;19.776;2023-07-16T12:40:15;5.35;;;3.60;;
38427;SDS011;24211;49.980;19.776;2023-07-16T12:42:43;4.93;;;3.70;;
38427;SDS011;24211;49.980;19.776;2023-07-16T12:45:10;5.68;;;4.22;;
38427;SDS011;24211;49.980;19.776;2023-07-16T12:47:38;6.68;;;4.00;;
38427;SDS011;24211;49.980;19.776;2023-07-16T12:50:06;4.20;;;3.33;;
38427;SDS011;24211;49.980;19.776;2023-07-16T12:52:34;5.43;;;3.80;;
38427;SDS011;24211;49.980;19.776;2023-07-16T12:55:01;6.05;;;3.75;;
38427;SDS011;24211;49.980;19.776;2023-07-16T12:57:29;5.70;;;4.05;;
38427;SDS011;24211;49.980;19.776;2023-07-16T12:59:56;5.22;;;3.90;;
38427;SDS011;24211;49.980;19.776;2023-07-16T13:02:23;4.95;;;3.75;;
38427;SDS011;24211;49.980;19.776;2023-07-16T13:04:50;4.75;;;3.60;;
38427;SDS011;24211;49.980;19.776;2023-07-16T13:07:18;5.00;;;3.58;;
38427;SDS011;24211;49.980;19.776;2023-07-16T13:09:45;4.55;;;3.45;;
38427;SDS011;24211;49.980;19.776;2023-07-16T13:12:12;6.05;;;3.85;;
38427;SDS011;24211;49.980;19.776;2023-07-16T13:14:39;5.35;;;3.58;;
38427;SDS011;24211;49.980;19.776;2023-07-16T13:17:06;5.53;;;3.92;;
38427;SDS011;24211;49.980;19.776;2023-07-16T13:19:33;5.40;;;3.60;;
38427;SDS011;24211;49.980;19.776;2023-07-16T13:22:01;5.00;;;3.60;;
38427;SDS011;24211;49.980;19.776;2023-07-16T13:24:28;4.65;;;3.35;;
38427;SDS011;24211;49.980;19.776;2023-07-16T13:26:55;6.03;;;3.60;;
38427;SDS011;24211;49.980;19.776;2023-07-16T13:29:22;5.15;;;3.75;;
38427;SDS011;24211;49.980;19.776;2023-07-16T13:31:50;5.35;;;3.78;;
38427;SDS011;24211;49.980;19.776;2023-07-16T13:34:17;4.45;;;3.47;;
38427;SDS011;24211;49.980;19.776;2023-07-16T13:36:44;5.90;;;4.00;;
38427;SDS011;24211;49.980;19.776;2023-07-16T13:39:12;5.30;;;4.30;;
38427;SDS011;24211;49.980;19.776;2023-07-16T13:41:40;5.03;;;4.28;;
38427;SDS011;24211;49.980;19.776;2023-07-16T13:44:07;5.78;;;4.53;;
38427;SDS011;24211;49.980;19.776;2023-07-16T13:46:34;6.32;;;4.43;;
38427;SDS011;24211;49.980;19.776;2023-07-16T13:49:04;7.10;;;4.38;;
38427;SDS011;24211;49.980;19.776;2023-07-16T13:51:31;5.35;;;4.18;;
38427;SDS011;24211;49.980;19.776;2023-07-16T13:53:58;5.22;;;4.00;;
38427;SDS011;24211;49.980;19.776;2023-07-16T13:56:26;4.70;;;3.78;;
38427;SDS011;24211;49.980;19.776;2023-07-16T13:58:53;5.65;;;4.10;;
38427;SDS011;24211;49.980;19.776;2023-07-16T14:01:21;7.50;;;4.00;;
38427;SDS011;24211;49.980;19.776;2023-07-16T14:03:50;5.43;;;4.22;;
38427;SDS011;24211;49.980;19.776;2023-07-16T14:06:17;6.70;;;4.28;;
38427;SDS011;24211;49.980;19.776;2023-07-16T14:08:45;5.22;;;4.20;;
38427;SDS011;24211;49.980;19.776;2023-07-16T14:11:12;6.03;;;4.35;;
38427;SDS011;24211;49.980;19.776;2023-07-16T14:13:39;4.80;;;4.00;;
38427;SDS011;24211;49.980;19.776;2023-07-16T14:16:07;5.55;;;3.95;;
38427;SDS011;24211;49.980;19.776;2023-07-16T14:18:34;5.28;;;3.95;;
38427;SDS011;24211;49.980;19.776;2023-07-16T14:21:01;5.50;;;4.22;;
38427;SDS011;24211;49.980;19.776;2023-07-16T14:23:29;4.55;;;3.72;;
38427;SDS011;24211;49.980;19.776;2023-07-16T14:25:56;6.03;;;3.97;;
38427;SDS011;24211;49.980;19.776;2023-07-16T14:28:24;5.20;;;3.60;;
38427;SDS011;24211;49.980;19.776;2023-07-16T14:30:51;5.10;;;3.92;;
38427;SDS011;24211;49.980;19.776;2023-07-16T14:33:18;5.47;;;3.97;;
38427;SDS011;24211;49.980;19.776;2023-07-16T14:35:45;4.22;;;3.63;;
38427;SDS011;24211;49.980;19.776;2023-07-16T14:38:12;4.90;;;4.00;;
38427;SDS011;24211;49.980;19.776;2023-07-16T14:40:40;5.57;;;4.30;;
38427;SDS011;24211;49.980;19.776;2023-07-16T14:43:08;4.70;;;3.70;;
38427;SDS011;24211;49.980;19.776;2023-07-16T14:45:35;5.78;;;3.80;;
38427;SDS011;24211;49.980;19.776;2023-07-16T14:48:03;4.50;;;3.60;;
38427;SDS011;24211;49.980;19.776;2023-07-16T14:50:32;5.70;;;3.63;;
38427;SDS011;24211;49.980;19.776;2023-07-16T14:52:59;5.78;;;3.78;;